Time;durP1;ratioP1;P1;durP2;ratioP2;P2;SDS_P1;SDS_P2;PMS_P1;PMS_P2;Temp;Humidity;BMP_temperature;BMP_pressure;BME280_temperature;BME280_humidity;BME280_pressure;Samples;Min_cycle;Max_cycle;Signal;HPM_P1;HPM_P2
2022/08/13 00:01:56;;;;;;;5.78;3.00;;;22.10;98.50;;;;;;5119847;28;20119;-69
2022/08/13 00:04:26;;;;;;;6.85;3.22;;;22.00;98.60;;;;;;5119440;28;20042;-70
2022/08/13 00:07:10;;;;;;;5.25;2.47;;;22.00;98.60;;;;;;5119467;28;20040;-69
2022/08/13 00:09:42;;;;;;;5.55;3.35;;;21.90;98.70;;;;;;5132881;27;20324;-70
2022/08/13 00:15:11;;;;;;;4.95;2.80;;;21.90;98.70;;;;;;5119503;28;20096;-70
2022/08/13 00:17:37;;;;;;;6.10;3.10;;;21.90;98.90;;;;;;5119418;28;20043;-70
2022/08/13 00:20:05;;;;;;;4.97;3.38;;;21.90;98.90;;;;;;5117856;28;20119;-70
2022/08/13 00:22:30;;;;;;;9.93;3.22;;;21.90;98.70;;;;;;5119208;28;20066;-71
2022/08/13 00:24:58;;;;;;;5.15;3.13;;;21.80;98.70;;;;;;5119328;28;20420;-70
2022/08/13 00:27:25;;;;;;;6.75;3.33;;;21.80;98.90;;;;;;5118968;28;20494;-70
2022/08/13 00:29:54;;;;;;;6.65;3.65;;;21.70;98.80;;;;;;5118741;28;20123;-70
2022/08/13 00:32:23;;;;;;;4.43;3.40;;;21.60;98.90;;;;;;5118829;28;20043;-70
2022/08/13 00:34:49;;;;;;;10.45;3.17;;;21.60;98.90;;;;;;5151330;27;20047;-70
2022/08/13 00:37:15;;;;;;;5.45;3.33;;;21.50;99.10;;;;;;5119057;28;20031;-70
2022/08/13 00:39:41;;;;;;;5.57;3.35;;;21.50;99.00;;;;;;5152116;27;20071;-69
2022/08/13 00:42:07;;;;;;;8.55;3.22;;;21.60;99.00;;;;;;5152613;27;20140;-70
2022/08/13 00:44:33;;;;;;;4.22;2.92;;;21.60;99.00;;;;;;5118576;28;20335;-69
2022/08/13 00:49:47;;;;;;;4.43;2.85;;;21.40;99.10;;;;;;5118412;28;20140;-69
2022/08/13 00:52:13;;;;;;;8.68;3.63;;;21.30;99.20;;;;;;5118554;28;20302;-69
2022/08/13 00:54:40;;;;;;;3.78;3.10;;;21.40;99.30;;;;;;5118485;28;20043;-70
2022/08/13 00:57:07;;;;;;;7.13;3.25;;;21.30;99.20;;;;;;5118553;28;20035;-70
2022/08/13 00:59:34;;;;;;;6.45;3.80;;;21.30;99.20;;;;;;5118364;28;20038;-70
2022/08/13 01:02:01;;;;;;;6.15;3.83;;;21.30;99.30;;;;;;5118255;28;20044;-70
2022/08/13 01:04:28;;;;;;;5.68;3.40;;;21.30;99.30;;;;;;5118440;28;20305;-70
2022/08/13 01:06:55;;;;;;;6.63;3.30;;;21.20;99.30;;;;;;5118516;28;20118;-70
2022/08/13 01:09:21;;;;;;;6.57;3.13;;;21.20;99.30;;;;;;5118097;28;20336;-70
2022/08/13 01:11:47;;;;;;;7.30;3.47;;;21.20;99.30;;;;;;5117125;28;20039;-70
2022/08/13 01:14:14;;;;;;;6.10;3.40;;;21.20;99.30;;;;;;5118111;28;20036;-70
2022/08/13 01:16:40;;;;;;;5.53;3.40;;;21.20;99.30;;;;;;5151421;27;20031;-70
2022/08/13 01:19:09;;;;;;;5.05;3.60;;;21.30;99.30;;;;;;5117576;28;20160;-70
2022/08/13 01:21:41;;;;;;;8.50;3.78;;;21.30;99.30;;;;;;5117562;28;20044;-70
2022/08/13 01:24:12;;;;;;;6.90;3.58;;;21.30;99.20;;;;;;5116929;28;20050;-69
2022/08/13 01:26:39;;;;;;;6.70;3.60;;;21.20;99.30;;;;;;5117844;28;20428;-70
2022/08/13 01:29:06;;;;;;;6.88;3.63;;;21.20;99.30;;;;;;5117891;28;20433;-70
2022/08/13 01:31:33;;;;;;;8.23;3.67;;;21.30;99.30;;;;;;5117736;28;20035;-70
2022/08/13 01:34:00;;;;;;;4.43;3.40;;;21.20;99.30;;;;;;5117990;28;20075;-70
2022/08/13 01:36:29;;;;;;;5.55;3.75;;;21.10;99.30;;;;;;5117772;28;20424;-69
2022/08/13 01:39:00;;;;;;;8.18;3.90;;;21.10;99.40;;;;;;5117656;28;20428;-70
2022/08/13 01:41:26;;;;;;;7.60;4.00;;;21.10;99.40;;;;;;5149676;27;20057;-69
2022/08/13 01:43:53;;;;;;;5.63;3.88;;;21.10;99.40;;;;;;5117487;28;20420;-70
2022/08/13 01:46:20;;;;;;;7.07;3.65;;;21.00;99.50;;;;;;5117914;28;20039;-69
2022/08/13 01:51:33;;;;;;;7.88;3.70;;;20.90;99.60;;;;;;5117290;28;20446;-71
2022/08/13 01:53:59;;;;;;;7.75;3.65;;;20.90;99.60;;;;;;5117363;28;20046;-70
2022/08/13 01:56:28;;;;;;;5.68;4.13;;;20.80;99.60;;;;;;5116390;28;20489;-70
2022/08/13 01:58:57;;;;;;;5.68;3.65;;;20.80;99.60;;;;;;5117597;28;20115;-69
2022/08/13 02:01:25;;;;;;;4.90;3.53;;;20.80;99.70;;;;;;5117519;28;20035;-70
2022/08/13 02:03:52;;;;;;;4.25;3.80;;;20.80;99.70;;;;;;5117506;28;20043;-70
2022/08/13 02:06:30;;;;;;;7.43;3.97;;;20.80;99.70;;;;;;5117239;28;20047;-70
2022/08/13 02:08:59;;;;;;;8.18;3.40;;;20.80;99.70;;;;;;5117381;28;20054;-70
2022/08/13 02:11:31;;;;;;;6.13;4.00;;;20.70;99.70;;;;;;5117121;28;20039;-70
2022/08/13 02:13:57;;;;;;;6.80;3.67;;;20.70;99.70;;;;;;5117362;28;20032;-70
2022/08/13 02:16:23;;;;;;;10.90;3.88;;;20.70;99.70;;;;;;5117403;28;20054;-69
2022/08/13 02:18:52;;;;;;;5.32;3.78;;;20.60;99.70;;;;;;5116530;28;20036;-70
2022/08/13 02:21:22;;;;;;;6.32;3.83;;;20.50;99.80;;;;;;5117346;28;20085;-70
2022/08/13 02:23:58;;;;;;;5.75;3.70;;;20.50;99.80;;;;;;5117122;28;20054;-70
2022/08/13 02:26:28;;;;;;;7.35;4.07;;;20.50;99.80;;;;;;5117302;28;20189;-69
2022/08/13 02:28:57;;;;;;;6.20;3.80;;;20.50;99.90;;;;;;5116927;28;20070;-70
2022/08/13 02:31:23;;;;;;;7.68;4.45;;;20.50;99.90;;;;;;5116632;28;20106;-70
2022/08/13 02:33:52;;;;;;;8.05;4.10;;;20.50;99.90;;;;;;5121440;28;20124;-70
2022/08/13 02:36:22;;;;;;;6.53;4.05;;;20.50;99.90;;;;;;5123819;28;20035;-70
2022/08/13 02:38:57;;;;;;;8.57;3.92;;;20.50;99.80;;;;;;5123917;27;20122;-70
2022/08/13 02:41:38;;;;;;;6.35;3.70;;;20.40;99.80;;;;;;5123550;27;20443;-69
2022/08/13 02:44:12;;;;;;;8.40;4.50;;;20.40;99.80;;;;;;5123892;28;20116;-70
2022/08/13 02:46:40;;;;;;;7.80;4.22;;;20.40;99.90;;;;;;5123622;27;20168;-70
2022/08/13 02:49:05;;;;;;;5.95;4.07;;;20.30;99.90;;;;;;5123279;27;20047;-71
2022/08/13 02:51:32;;;;;;;7.78;4.20;;;20.30;99.90;;;;;;5123656;27;20040;-70
2022/08/13 02:54:00;;;;;;;6.85;4.07;;;20.30;99.90;;;;;;5123513;27;20031;-70
2022/08/13 02:56:27;;;;;;;8.77;4.10;;;20.20;99.90;;;;;;5123782;27;20040;-70
2022/08/13 02:58:54;;;;;;;7.10;4.47;;;20.20;99.90;;;;;;5123473;27;20107;-70
2022/08/13 03:01:20;;;;;;;5.57;3.45;;;20.20;99.90;;;;;;5122690;28;20040;-69
2022/08/13 03:03:45;;;;;;;5.20;3.72;;;20.20;99.90;;;;;;5123474;27;20071;-69
2022/08/13 03:06:11;;;;;;;6.15;3.88;;;20.20;99.90;;;;;;5123473;28;20391;-69
2022/08/13 03:08:37;;;;;;;6.88;4.03;;;20.00;99.90;;;;;;5123409;28;20486;-69
2022/08/13 03:11:04;;;;;;;8.20;3.95;;;20.00;99.90;;;;;;5123227;27;20127;-70
2022/08/13 03:13:34;;;;;;;5.43;3.60;;;19.90;99.90;;;;;;5123414;27;20044;-69
2022/08/13 03:16:02;;;;;;;5.90;3.83;;;19.90;99.90;;;;;;5123441;27;20118;-69
2022/08/13 03:18:29;;;;;;;7.78;4.20;;;19.90;99.90;;;;;;5123122;27;20391;-69
2022/08/13 03:20:55;;;;;;;10.18;4.10;;;19.90;99.90;;;;;;5123253;27;20086;-69
2022/08/13 03:23:22;;;;;;;6.00;4.43;;;19.90;99.90;;;;;;5123452;28;20070;-69
2022/08/13 03:25:49;;;;;;;9.18;3.83;;;19.90;99.90;;;;;;5123300;27;20075;-69
2022/08/13 03:28:15;;;;;;;6.90;3.97;;;19.90;99.90;;;;;;5123233;27;20362;-69
2022/08/13 03:30:41;;;;;;;9.38;4.05;;;19.90;99.90;;;;;;5123329;27;20104;-69
2022/08/13 03:33:17;;;;;;;5.78;3.90;;;20.00;99.90;;;;;;5123232;27;20110;-69
2022/08/13 03:35:43;;;;;;;5.75;3.83;;;20.00;99.80;;;;;;5123319;27;20035;-70
2022/08/13 03:38:11;;;;;;;5.18;3.70;;;19.90;99.90;;;;;;5122960;27;20054;-70
2022/08/13 03:43:22;;;;;;;6.55;4.82;;;19.90;99.80;;;;;;5123363;28;20072;-69
2022/08/13 03:45:49;;;;;;;10.00;4.47;;;19.90;99.90;;;;;;5119638;27;20043;-69
2022/08/13 03:48:16;;;;;;;5.20;3.75;;;19.90;99.90;;;;;;5119570;28;20043;-70
2022/08/13 03:50:43;;;;;;;7.30;4.03;;;19.90;99.90;;;;;;5118810;28;20089;-70
2022/08/13 03:53:09;;;;;;;7.32;4.15;;;19.80;99.90;;;;;;5119900;28;20035;-69
2022/08/13 03:55:37;;;;;;;6.82;4.15;;;19.80;99.90;;;;;;5135597;27;20081;-69
2022/08/13 03:58:05;;;;;;;5.65;4.22;;;19.80;99.90;;;;;;5119926;28;20036;-69
2022/08/13 04:00:54;;;;;;;6.93;4.20;;;19.70;99.90;;;;;;5119516;28;20036;-69
2022/08/13 04:03:28;;;;;;;7.55;4.55;;;19.70;99.90;;;;;;5119754;28;20032;-69
2022/08/13 04:05:58;;;;;;;8.23;4.32;;;19.70;99.90;;;;;;5119801;28;20035;-70
2022/08/13 04:08:26;;;;;;;7.68;4.43;;;19.60;99.90;;;;;;5119445;28;20118;-69
2022/08/13 04:10:52;;;;;;;12.07;4.40;;;19.60;99.90;;;;;;5119588;28;20035;-69
2022/08/13 04:13:19;;;;;;;6.85;3.92;;;19.50;99.90;;;;;;5119589;28;20046;-70
2022/08/13 04:15:45;;;;;;;8.10;4.82;;;19.50;99.90;;;;;;5119485;27;20141;-70
2022/08/13 04:18:13;;;;;;;9.38;4.28;;;19.50;99.90;;;;;;5119248;28;20114;-69
2022/08/13 04:20:52;;;;;;;5.55;4.10;;;19.60;99.90;;;;;;5119411;28;20114;-69
2022/08/13 04:23:19;;;;;;;7.82;4.40;;;19.60;99.90;;;;;;5119280;28;20088;-69
2022/08/13 04:25:47;;;;;;;8.65;4.40;;;19.60;99.90;;;;;;5118283;28;20040;-69
2022/08/13 04:28:14;;;;;;;8.20;4.50;;;19.60;99.90;;;;;;5119118;27;20060;-69
2022/08/13 04:30:41;;;;;;;7.13;4.05;;;19.60;99.90;;;;;;5118841;28;20454;-69
2022/08/13 04:33:11;;;;;;;7.32;4.05;;;19.60;99.90;;;;;;5117835;28;20042;-70
2022/08/13 04:35:38;;;;;;;6.70;3.85;;;19.60;99.90;;;;;;5119205;28;20075;-70
2022/08/13 04:38:05;;;;;;;6.22;4.28;;;19.60;99.90;;;;;;5119045;28;20096;-70
2022/08/13 04:40:43;;;;;;;9.85;4.20;;;19.70;99.80;;;;;;5119051;28;20125;-70
2022/08/13 04:43:10;;;;;;;5.32;3.88;;;19.70;99.80;;;;;;5118881;28;20338;-70
2022/08/13 04:45:36;;;;;;;6.95;3.38;;;19.80;99.80;;;;;;5118863;28;20063;-70
2022/08/13 04:48:09;;;;;;;6.43;4.32;;;19.80;99.80;;;;;;5118751;28;20169;-70
2022/08/13 04:50:37;;;;;;;6.07;4.47;;;19.90;99.80;;;;;;5117359;28;20325;-70
2022/08/13 04:53:08;;;;;;;6.57;4.07;;;19.90;99.70;;;;;;5118778;28;20394;-70
2022/08/13 04:55:36;;;;;;;6.45;4.28;;;20.10;99.70;;;;;;5118440;28;20043;-70
2022/08/13 04:58:02;;;;;;;7.55;4.57;;;20.00;99.60;;;;;;5117926;28;20043;-69
2022/08/13 05:00:32;;;;;;;8.70;4.03;;;20.00;99.60;;;;;;5134860;27;20048;-70
2022/08/13 05:03:33;;;;;;;7.97;4.40;;;20.00;99.70;;;;;;5118496;28;20332;-70
2022/08/13 05:05:59;;;;;;;7.45;4.53;;;20.00;99.70;;;;;;5116318;27;20085;-70
2022/08/13 05:08:24;;;;;;;6.05;4.13;;;20.00;99.80;;;;;;5117155;28;20040;-70
2022/08/13 05:10:50;;;;;;;8.07;4.60;;;20.00;99.80;;;;;;5118189;28;20080;-69
2022/08/13 05:13:25;;;;;;;7.10;4.55;;;20.10;99.80;;;;;;5118290;28;20089;-69
2022/08/13 05:15:54;;;;;;;7.50;4.40;;;20.20;99.80;;;;;;5117307;28;20039;-73
2022/08/13 05:18:20;;;;;;;6.97;4.25;;;20.20;99.90;;;;;;5117850;28;20027;-70
2022/08/13 05:20:46;;;;;;;6.30;4.30;;;20.30;99.90;;;;;;5117223;28;20036;-70
2022/08/13 05:23:13;;;;;;;9.43;4.40;;;20.40;99.80;;;;;;5118259;28;20050;-69
2022/08/13 05:25:42;;;;;;;8.80;3.88;;;20.60;99.80;;;;;;5118050;28;20050;-70
2022/08/13 05:28:08;;;;;;;8.63;4.38;;;20.70;99.70;;;;;;5118016;28;20127;-69
2022/08/13 05:30:39;;;;;;;7.35;4.35;;;20.80;99.70;;;;;;5117670;28;20059;-72
2022/08/13 05:33:16;;;;;;;8.93;4.05;;;21.00;99.80;;;;;;5118194;28;20036;-70
2022/08/13 05:35:48;;;;;;;8.50;5.15;;;21.00;99.60;;;;;;5117750;28;20040;-70
2022/08/13 05:38:15;;;;;;;6.25;4.30;;;21.20;99.40;;;;;;5117717;28;20047;-70
2022/08/13 05:40:42;;;;;;;7.50;4.78;;;21.40;99.40;;;;;;5117619;28;20036;-70
2022/08/13 05:43:27;;;;;;;7.72;4.07;;;21.50;99.40;;;;;;5117533;28;20044;-70
2022/08/13 05:45:58;;;;;;;8.63;4.13;;;21.70;99.30;;;;;;5117635;28;20444;-69
2022/08/13 05:48:30;;;;;;;7.55;3.80;;;21.80;99.40;;;;;;5117113;28;20082;-70
2022/08/13 05:51:00;;;;;;;5.60;3.80;;;21.90;99.40;;;;;;5116385;28;20044;-69
2022/08/13 05:53:27;;;;;;;6.10;4.05;;;21.90;99.30;;;;;;5116337;28;20039;-70
2022/08/13 05:55:54;;;;;;;5.00;3.90;;;22.10;99.00;;;;;;5117331;28;20123;-70
2022/08/13 05:58:21;;;;;;;11.30;4.10;;;22.10;99.20;;;;;;5117537;28;20111;-69
2022/08/13 06:03:32;;;;;;;10.50;4.43;;;22.30;98.80;;;;;;5117355;28;20118;-69
2022/08/13 06:06:01;;;;;;;8.68;4.57;;;22.40;98.50;;;;;;5117035;28;20075;-70
2022/08/13 06:08:35;;;;;;;5.90;4.15;;;22.40;98.60;;;;;;5116852;28;20040;-70
2022/08/13 06:11:04;;;;;;;8.32;3.60;;;22.50;98.70;;;;;;5117404;28;20399;-70
2022/08/13 06:13:30;;;;;;;9.70;4.55;;;22.60;98.70;;;;;;5117140;28;20031;-70
2022/08/13 06:16:00;;;;;;;7.88;4.53;;;22.80;98.50;;;;;;5116435;28;20060;-70
2022/08/13 06:18:32;;;;;;;8.48;4.90;;;22.80;98.50;;;;;;5115543;28;20051;-70
2022/08/13 06:21:00;;;;;;;5.70;3.63;;;22.90;98.30;;;;;;5117349;28;20032;-70
2022/08/13 06:23:28;;;;;;;7.47;3.33;;;22.90;98.60;;;;;;5117111;28;20048;-70
2022/08/13 06:25:54;;;;;;;6.53;3.50;;;22.90;98.50;;;;;;5117203;28;20039;-70
2022/08/13 06:28:23;;;;;;;7.15;4.10;;;23.10;98.60;;;;;;5117068;28;20065;-70
2022/08/13 06:30:50;;;;;;;7.32;4.38;;;23.20;98.10;;;;;;5116947;28;20047;-70
2022/08/13 06:33:20;;;;;;;8.43;3.97;;;23.20;98.10;;;;;;5116780;28;20368;-70
2022/08/13 06:35:48;;;;;;;9.55;4.20;;;23.20;98.20;;;;;;5117021;28;20059;-70
2022/08/13 06:38:14;;;;;;;8.27;3.47;;;23.40;98.40;;;;;;5117018;28;20054;-70
2022/08/13 06:40:42;;;;;;;7.85;4.18;;;23.40;98.20;;;;;;5116869;28;20075;-70
2022/08/13 06:43:09;;;;;;;5.72;3.55;;;23.40;97.60;;;;;;5117068;28;20043;-70
2022/08/13 06:45:36;;;;;;;6.55;4.00;;;23.50;97.50;;;;;;5116720;28;20085;-70
2022/08/13 06:48:03;;;;;;;6.78;4.13;;;23.50;97.40;;;;;;5116918;28;20116;-70
2022/08/13 06:50:30;;;;;;;9.10;3.70;;;23.40;97.40;;;;;;5116540;28;20035;-70
2022/08/13 06:52:56;;;;;;;8.40;3.40;;;23.70;97.40;;;;;;5149550;27;20050;-70
2022/08/13 06:55:22;;;;;;;7.55;3.72;;;23.80;97.40;;;;;;5116832;28;20040;-69
2022/08/13 06:57:48;;;;;;;8.70;3.05;;;24.00;97.30;;;;;;5116738;28;20061;-70
2022/08/13 07:00:14;;;;;;;4.57;3.17;;;24.00;97.30;;;;;;5150090;27;20044;-70
2022/08/13 07:02:42;;;;;;;7.22;3.83;;;24.20;97.50;;;;;;5116797;28;20050;-68
2022/08/13 07:05:08;;;;;;;8.23;3.70;;;24.50;97.30;;;;;;5116705;28;20075;-70
2022/08/13 07:07:44;;;;;;;9.70;3.72;;;24.40;97.30;;;;;;5116854;28;20043;-69
2022/08/13 07:10:11;;;;;;;6.93;3.47;;;24.50;97.40;;;;;;5115682;28;20047;-71
2022/08/13 07:12:41;;;;;;;7.68;3.38;;;24.50;97.20;;;;;;5116627;28;20040;-69
2022/08/13 07:15:17;;;;;;;7.43;3.03;;;24.40;97.30;;;;;;5150153;27;20104;-68
2022/08/13 07:17:45;;;;;;;6.40;3.03;;;24.50;97.40;;;;;;5116872;28;20043;-68
2022/08/13 07:20:11;;;;;;;7.07;2.60;;;24.70;97.40;;;;;;5133552;27;20123;-69
2022/08/13 07:22:37;;;;;;;5.00;2.92;;;25.00;97.40;;;;;;5120621;28;20042;-68
2022/08/13 07:25:04;;;;;;;4.35;2.90;;;25.10;97.30;;;;;;5119279;28;20051;-68
2022/08/13 07:27:30;;;;;;;6.80;3.25;;;25.20;97.20;;;;;;5119162;28;20058;-68
2022/08/13 07:29:58;;;;;;;5.70;2.78;;;25.30;97.10;;;;;;5120096;28;20096;-68
2022/08/13 07:32:27;;;;;;;6.50;2.75;;;25.30;97.00;;;;;;5120244;28;20157;-68
2022/08/13 07:34:58;;;;;;;3.78;2.60;;;25.20;97.20;;;;;;5120254;28;20031;-73
2022/08/13 07:37:23;;;;;;;4.38;2.40;;;25.20;97.00;;;;;;5152552;27;20093;-75
2022/08/13 07:39:49;;;;;;;7.55;2.65;;;25.30;97.20;;;;;;5120364;28;20035;-73
2022/08/13 07:42:16;;;;;;;6.30;2.20;;;25.50;97.20;;;;;;5119986;28;20039;-70
2022/08/13 07:44:41;;;;;;;3.88;2.08;;;25.70;96.90;;;;;;5120292;28;20074;-71
2022/08/13 07:47:12;;;;;;;6.93;1.80;;;25.70;96.70;;;;;;5119999;28;20066;-71
2022/08/13 07:49:40;;;;;;;3.85;1.42;;;25.90;96.50;;;;;;5119583;28;20040;-70
2022/08/13 07:52:07;;;;;;;4.68;1.45;;;26.00;96.20;;;;;;5119826;28;20051;-71
2022/08/13 07:54:34;;;;;;;4.28;1.20;;;26.00;96.00;;;;;;5119997;28;20075;-71
2022/08/13 07:57:00;;;;;;;2.17;1.23;;;26.10;96.00;;;;;;5119839;28;20039;-70
2022/08/13 07:59:26;;;;;;;3.72;1.30;;;26.30;95.80;;;;;;5119817;28;20039;-70
2022/08/13 08:01:54;;;;;;;3.47;1.63;;;26.30;95.50;;;;;;5119695;28;20039;-70
2022/08/13 08:04:24;;;;;;;2.22;1.17;;;26.30;95.70;;;;;;5119669;28;20336;-70
2022/08/13 08:06:51;;;;;;;6.55;1.70;;;26.40;95.60;;;;;;5160266;27;20615;-70
2022/08/13 08:09:22;;;;;;;7.05;1.52;;;26.60;95.60;;;;;;5122379;27;20513;-71
2022/08/13 08:14:32;;;;;;;5.75;1.50;;;26.90;95.70;;;;;;5119142;28;20180;-70
2022/08/13 08:16:59;;;;;;;4.70;1.10;;;27.00;95.50;;;;;;5119116;28;20075;-71
2022/08/13 08:19:27;;;;;;;3.30;1.25;;;27.00;95.10;;;;;;5117953;28;20048;-71
2022/08/13 08:21:56;;;;;;;1.80;1.20;;;27.10;95.10;;;;;;5118873;28;20459;-69
2022/08/13 08:24:22;;;;;;;7.32;1.50;;;27.00;95.00;;;;;;5127158;27;20102;-69
2022/08/13 08:26:49;;;;;;;7.20;1.40;;;27.10;95.10;;;;;;5138617;27;20397;-69
2022/08/13 08:29:16;;;;;;;2.55;1.40;;;27.30;95.00;;;;;;5137711;27;20069;-69
2022/08/13 08:31:44;;;;;;;1.95;1.15;;;27.40;95.00;;;;;;5118202;27;20387;-69
2022/08/13 08:34:11;;;;;;;3.35;1.20;;;27.60;95.00;;;;;;5116465;28;20047;-69
2022/08/13 08:36:41;;;;;;;2.78;1.25;;;27.60;94.90;;;;;;5119092;28;20061;-69
2022/08/13 08:44:40;;;;;;;6.05;1.20;;;28.10;94.90;;;;;;5118573;28;20047;-69
2022/08/13 08:47:07;;;;;;;8.25;1.48;;;28.30;94.50;;;;;;5117808;28;20135;-69
2022/08/13 08:49:33;;;;;;;5.25;1.20;;;28.10;94.40;;;;;;5117499;28;20032;-67
2022/08/13 08:52:00;;;;;;;6.15;1.35;;;28.20;94.70;;;;;;5118606;28;20386;-67
2022/08/13 08:54:29;;;;;;;15.77;1.50;;;28.30;94.40;;;;;;5118898;28;20089;-66
2022/08/13 08:56:56;;;;;;;7.60;1.50;;;28.40;94.50;;;;;;5117590;28;20050;-77
2022/08/13 08:59:35;;;;;;;3.67;1.20;;;28.20;94.90;;;;;;5118454;28;20046;-77
2022/08/13 09:02:15;;;;;;;5.00;1.50;;;28.10;94.80;;;;;;5128725;27;20137;-77
2022/08/13 09:04:41;;;;;;;2.45;1.30;;;28.00;94.50;;;;;;5138760;27;20424;-78
2022/08/13 09:07:08;;;;;;;6.78;1.33;;;28.00;94.50;;;;;;5139233;27;20035;-75
2022/08/13 09:09:35;;;;;;;3.78;1.50;;;27.90;94.40;;;;;;5141290;27;20038;-93
2022/08/13 09:12:02;;;;;;;2.33;1.30;;;28.10;94.40;;;;;;5176476;27;20121;-93
2022/08/13 09:14:30;;;;;;;4.43;1.15;;;27.90;94.00;;;;;;5144998;27;20072;-89
2022/08/13 09:16:58;;;;;;;4.93;1.15;;;27.90;94.30;;;;;;5139947;27;20039;-88
2022/08/13 09:19:25;;;;;;;4.50;1.30;;;28.00;94.50;;;;;;5139055;27;20384;-91
2022/08/13 09:21:51;;;;;;;6.60;1.20;;;28.10;94.10;;;;;;5141478;27;20492;-93
2022/08/13 09:24:21;;;;;;;5.45;1.10;;;28.40;94.30;;;;;;5120580;27;20077;-72
2022/08/13 09:26:51;;;;;;;4.63;1.40;;;28.60;93.90;;;;;;5138405;27;20031;-72
2022/08/13 09:29:23;;;;;;;3.67;0.90;;;28.80;94.00;;;;;;5138388;27;20051;-70
2022/08/13 09:31:50;;;;;;;4.20;1.10;;;29.30;93.80;;;;;;5138469;27;20093;-71
2022/08/13 09:34:19;;;;;;;1.90;0.98;;;29.40;93.50;;;;;;5138463;27;20303;-71
2022/08/13 09:36:45;;;;;;;3.50;1.10;;;29.70;93.50;;;;;;5137944;27;20096;-72
2022/08/13 09:39:34;;;;;;;2.03;1.05;;;29.80;93.60;;;;;;5138546;27;20035;-71
2022/08/13 09:42:06;;;;;;;4.82;1.38;;;29.90;93.40;;;;;;5138213;27;20068;-71
2022/08/13 09:44:31;;;;;;;4.70;1.30;;;30.00;93.30;;;;;;5137934;27;20063;-71
2022/08/13 09:47:02;;;;;;;3.70;1.25;;;30.10;93.30;;;;;;5138231;27;20076;-71
2022/08/13 09:49:29;;;;;;;4.57;1.40;;;30.40;93.80;;;;;;5136957;27;20046;-71
2022/08/13 09:51:55;;;;;;;2.65;1.17;;;30.50;93.10;;;;;;5136874;27;20043;-71
2022/08/13 09:54:22;;;;;;;2.35;1.20;;;30.70;93.00;;;;;;5137982;27;20038;-71
2022/08/13 09:56:48;;;;;;;5.18;1.60;;;30.90;93.00;;;;;;5139138;27;20035;-72
2022/08/13 09:59:15;;;;;;;2.70;1.20;;;30.80;92.90;;;;;;5138250;27;20042;-71
2022/08/13 10:01:41;;;;;;;2.67;1.20;;;30.90;92.70;;;;;;5137712;27;20427;-72
2022/08/13 10:04:07;;;;;;;4.55;1.35;;;30.80;93.00;;;;;;5137463;27;20114;-74
2022/08/13 10:06:32;;;;;;;7.00;1.35;;;31.00;92.70;;;;;;5136820;27;20419;-71
2022/08/13 10:09:01;;;;;;;2.85;1.10;;;31.10;92.90;;;;;;5137662;27;20425;-70
2022/08/13 10:11:27;;;;;;;3.33;0.95;;;31.10;92.40;;;;;;5136408;27;20039;-71
2022/08/13 10:13:54;;;;;;;2.90;1.13;;;31.30;92.60;;;;;;5137857;27;20152;-69
2022/08/13 10:16:21;;;;;;;4.70;1.40;;;31.70;92.70;;;;;;5137869;27;20099;-69
2022/08/13 10:18:46;;;;;;;5.00;1.38;;;32.00;92.60;;;;;;5137193;27;20067;-69
2022/08/13 10:21:13;;;;;;;3.40;1.10;;;31.80;92.10;;;;;;5135583;27;20053;-70
2022/08/13 10:23:38;;;;;;;1.63;1.02;;;31.70;92.40;;;;;;5137524;27;20421;-69
2022/08/13 10:26:04;;;;;;;5.78;1.00;;;31.90;92.30;;;;;;5136455;27;20134;-69
2022/08/13 10:28:33;;;;;;;5.30;1.35;;;31.80;91.90;;;;;;5137280;27;20055;-69
2022/08/13 10:31:07;;;;;;;1.88;1.15;;;31.90;91.70;;;;;;5137382;27;20409;-69
2022/08/13 10:33:36;;;;;;;1.20;1.10;;;31.90;91.50;;;;;;5135562;28;20037;-73
2022/08/13 10:36:05;;;;;;;4.10;1.20;;;32.20;91.90;;;;;;5133780;27;20121;-73
2022/08/13 10:38:32;;;;;;;3.05;1.10;;;32.20;91.60;;;;;;5136045;27;20039;-72
2022/08/13 10:41:07;;;;;;;3.58;1.10;;;32.20;91.50;;;;;;5137182;27;20331;-72
2022/08/13 10:43:40;;;;;;;1.73;1.20;;;32.00;91.50;;;;;;5136663;28;20475;-73
2022/08/13 10:46:11;;;;;;;4.68;1.10;;;32.20;91.40;;;;;;5137536;27;20129;-72
2022/08/13 10:48:38;;;;;;;5.65;1.10;;;32.50;91.70;;;;;;5137617;27;20039;-72
2022/08/13 10:51:04;;;;;;;2.58;1.20;;;32.60;91.60;;;;;;5136161;28;20347;-72
2022/08/13 10:56:16;;;;;;;2.67;1.30;;;32.80;91.30;;;;;;5130547;27;20046;-74
2022/08/13 10:58:42;;;;;;;3.90;1.42;;;33.00;91.40;;;;;;5133952;27;20118;-72
2022/08/13 11:01:09;;;;;;;6.03;1.10;;;33.10;91.30;;;;;;5139047;27;20362;-70
2022/08/13 11:03:34;;;;;;;2.25;0.90;;;33.30;91.40;;;;;;5122841;27;20039;-73
2022/08/13 11:06:03;;;;;;;1.60;1.05;;;33.50;91.00;;;;;;5157651;27;20070;-73
2022/08/13 11:08:36;;;;;;;2.45;1.10;;;33.50;90.90;;;;;;5137490;27;20043;-73
2022/08/13 11:11:07;;;;;;;1.10;0.90;;;33.80;91.00;;;;;;5158015;27;20036;-72
2022/08/13 11:13:33;;;;;;;3.17;1.10;;;33.70;91.20;;;;;;5139058;27;20035;-71
2022/08/13 11:16:00;;;;;;;3.00;1.13;;;33.80;91.00;;;;;;5139861;27;20354;-72
2022/08/13 11:18:27;;;;;;;4.15;1.20;;;34.00;91.20;;;;;;5140062;27;20328;-70
2022/08/13 11:21:02;;;;;;;5.10;1.10;;;34.00;91.20;;;;;;5139789;27;20110;-74
2022/08/13 11:23:31;;;;;;;1.92;1.05;;;34.30;91.30;;;;;;5126232;27;20024;-74
2022/08/13 11:25:57;;;;;;;1.63;1.10;;;33.90;91.00;;;;;;5137542;27;20066;-71
2022/08/13 11:28:23;;;;;;;6.72;1.20;;;34.00;91.10;;;;;;5133756;27;20455;-71
2022/08/13 11:30:50;;;;;;;3.97;1.20;;;34.10;90.70;;;;;;5136321;27;20035;-71
2022/08/13 11:33:17;;;;;;;1.95;1.00;;;34.00;90.50;;;;;;5137633;27;20387;-72
2022/08/13 11:35:44;;;;;;;3.65;1.92;;;34.30;90.70;;;;;;5137711;27;20039;-73
2022/08/13 11:38:12;;;;;;;4.10;1.13;;;34.70;90.70;;;;;;5139651;27;20116;-71
2022/08/13 11:40:38;;;;;;;1.73;1.35;;;34.60;90.60;;;;;;5138967;27;20042;-71
2022/08/13 11:43:04;;;;;;;2.05;1.20;;;34.60;90.40;;;;;;5122493;27;20460;-70
2022/08/13 11:45:30;;;;;;;1.77;1.17;;;34.40;90.40;;;;;;5139406;27;20176;-69
2022/08/13 11:47:56;;;;;;;5.07;1.20;;;34.30;90.40;;;;;;5140469;27;20160;-71
2022/08/13 11:50:22;;;;;;;1.85;1.00;;;34.30;90.80;;;;;;5139093;27;20050;-71
2022/08/13 11:52:47;;;;;;;2.95;1.00;;;34.50;90.80;;;;;;5140167;27;20047;-84
2022/08/13 11:55:13;;;;;;;2.35;1.40;;;34.90;90.40;;;;;;5122051;27;20055;-84
2022/08/13 11:57:39;;;;;;;2.42;1.42;;;34.10;90.20;;;;;;5140160;27;20131;-84
2022/08/13 12:00:06;;;;;;;3.35;1.00;;;33.30;89.60;;;;;;5122274;27;20404;-84
2022/08/13 12:02:32;;;;;;;3.47;1.30;;;32.70;89.40;;;;;;5122487;27;20046;-77
2022/08/13 12:04:58;;;;;;;2.25;1.02;;;32.50;90.00;;;;;;5139908;27;20386;-77
2022/08/13 12:07:25;;;;;;;3.40;1.10;;;32.60;89.90;;;;;;5139785;27;20043;-82
2022/08/13 12:09:51;;;;;;;3.47;1.00;;;32.60;89.20;;;;;;5121857;27;20043;-82
2022/08/13 12:12:16;;;;;;;2.00;1.33;;;32.80;90.30;;;;;;5121812;27;20054;-83
2022/08/13 12:14:42;;;;;;;3.55;1.13;;;33.30;90.10;;;;;;5121911;27;20072;-83
2022/08/13 12:17:08;;;;;;;2.85;0.90;;;33.60;90.80;;;;;;5138979;27;20042;-81
2022/08/13 12:19:34;;;;;;;2.38;1.13;;;33.60;89.60;;;;;;5138835;27;20102;-70
2022/08/13 12:22:00;;;;;;;1.48;1.00;;;33.60;90.10;;;;;;5121635;27;20404;-71
2022/08/13 12:24:27;;;;;;;3.58;1.00;;;33.90;90.10;;;;;;5139647;27;20416;-71
2022/08/13 12:26:52;;;;;;;2.25;1.10;;;34.80;90.50;;;;;;5140000;27;20122;-73
2022/08/13 12:29:18;;;;;;;1.30;1.17;;;35.40;90.00;;;;;;5137888;27;20131;-78
2022/08/13 12:31:44;;;;;;;3.40;1.30;;;35.50;89.60;;;;;;5135433;27;20054;-74
2022/08/13 12:34:09;;;;;;;3.08;1.23;;;35.70;89.70;;;;;;5121771;27;20048;-73
2022/08/13 12:36:35;;;;;;;1.92;1.33;;;36.00;89.90;;;;;;5127525;27;20110;-72
2022/08/13 12:39:01;;;;;;;1.27;1.08;;;35.90;90.10;;;;;;5121164;27;20335;-72
2022/08/13 12:41:28;;;;;;;1.40;1.20;;;35.70;90.00;;;;;;5124526;27;20043;-72
2022/08/13 12:43:54;;;;;;;4.15;1.45;;;35.80;90.10;;;;;;5117746;28;20048;-72
2022/08/13 12:46:19;;;;;;;2.97;1.10;;;35.80;90.00;;;;;;5119376;27;20406;-73
2022/08/13 12:48:45;;;;;;;2.70;1.15;;;36.20;90.10;;;;;;5118499;28;20090;-72
2022/08/13 12:51:11;;;;;;;2.38;1.30;;;36.30;90.20;;;;;;5118137;28;20118;-72
2022/08/13 12:53:36;;;;;;;3.38;1.30;;;36.40;90.10;;;;;;5118148;28;20423;-73
2022/08/13 12:56:02;;;;;;;4.47;1.30;;;36.40;89.30;;;;;;5118417;28;20118;-73
2022/08/13 12:58:28;;;;;;;3.65;1.25;;;36.00;89.50;;;;;;5118441;28;20047;-72
2022/08/13 13:00:57;;;;;;;2.03;1.27;;;35.90;88.90;;;;;;5117338;28;20039;-72
2022/08/13 13:03:26;;;;;;;3.45;1.10;;;36.20;89.40;;;;;;5118744;28;20056;-72
2022/08/13 13:05:53;;;;;;;3.58;1.25;;;36.60;89.10;;;;;;5118222;28;20046;-72
2022/08/13 13:08:30;;;;;;;4.70;1.40;;;36.30;90.30;;;;;;5118376;28;20047;-73
2022/08/13 13:10:58;;;;;;;4.28;1.70;;;36.30;89.90;;;;;;5118059;28;20088;-72
2022/08/13 13:13:26;;;;;;;3.30;1.30;;;36.00;90.10;;;;;;5117199;28;20358;-72
2022/08/13 13:15:53;;;;;;;3.22;1.38;;;35.80;89.80;;;;;;5117010;28;20039;-70